Terminal Aerodrome Forecast
Issued by NWS

Home | Current Version | Previous Version | Text Only | Print | Product List | Glossary On
Versions: 1 2 3 4 5 6 7 8 9 10 11 12 13 14 15 16 17 18 19 20 21 22 23 24 25 26 27 28 29 30
000
FTUS45 KBOU 240622 AAA
TAFAPA
TAF AMD
KAPA 240622Z 2406/2506 15008KT P6SM BKN015 BKN100
     FM240730 15008KT P6SM SCT020 BKN100 BKN200
     FM240900 16008KT P6SM SCT220
     FM241200 19008KT P6SM SCT220
     FM242000 02006KT P6SM FEW100 SCT220=

USA.gov is the U.S. government's official web portal to all federal, state and local government web resources and services.